Time;durP1;ratioP1;P1;durP2;ratioP2;P2;SDS_P1;SDS_P2;PMS_P1;PMS_P2;Temp;Humidity;BMP_temperature;BMP_pressure;BME280_temperature;BME280_humidity;BME280_pressure;Samples;Min_cycle;Max_cycle;Signal;HPM_P1;HPM_P2
2022/12/21 00:01:15;;;;;;;19.93;9.50;;;;;;;5.88;100.00;100679.13;5076570;28;20531;-68
2022/12/21 00:03:42;;;;;;;26.77;10.13;;;;;;;5.88;100.00;100676.44;5075625;28;20564;-68
2022/12/21 00:06:10;;;;;;;24.67;8.13;;;;;;;5.87;100.00;100674.84;5076192;28;20811;-68
2022/12/21 00:08:37;;;;;;;20.33;8.20;;;;;;;5.86;100.00;100665.16;5075576;28;20785;-68
2022/12/21 00:11:04;;;;;;;19.33;7.80;;;;;;;5.86;100.00;100660.59;5075057;28;20841;-68
2022/12/21 00:13:32;;;;;;;19.60;8.27;;;;;;;5.91;100.00;100665.16;5075337;28;21067;-68
2022/12/21 00:15:59;;;;;;;23.30;10.13;;;;;;;5.91;100.00;100659.78;5076331;28;20810;-68
2022/12/21 00:18:28;;;;;;;23.63;8.60;;;;;;;5.85;100.00;100661.66;5075450;28;20974;-68
2022/12/21 00:20:59;;;;;;;20.40;8.23;;;;;;;5.86;100.00;100651.72;5074944;28;21028;-68
2022/12/21 00:23:25;;;;;;;20.20;8.13;;;;;;;5.85;100.00;100647.44;5075867;28;20503;-68
2022/12/21 00:25:52;;;;;;;25.30;9.17;;;;;;;5.86;100.00;100647.16;5074860;28;20551;-68
2022/12/21 00:28:18;;;;;;;22.40;8.53;;;;;;;5.81;100.00;100642.56;5075440;28;20467;-68
2022/12/21 00:30:45;;;;;;;21.20;7.70;;;;;;;5.71;100.00;100639.88;5074599;28;20458;-68
2022/12/21 00:33:12;;;;;;;16.40;7.30;;;;;;;5.73;100.00;100637.72;5076025;28;20457;-68
2022/12/21 00:35:40;;;;;;;17.60;7.23;;;;;;;5.70;100.00;100635.56;5075544;28;20478;-69
2022/12/21 00:38:07;;;;;;;23.07;8.80;;;;;;;5.70;100.00;100627.50;5075985;28;20447;-68
2022/12/21 00:40:33;;;;;;;25.93;9.03;;;;;;;5.71;100.00;100631.81;5074824;28;20461;-68
2022/12/21 00:43:00;;;;;;;25.83;9.37;;;;;;;5.76;100.00;100641.78;5075719;28;20445;-69
2022/12/21 00:45:26;;;;;;;25.30;9.50;;;;;;;5.76;100.00;100634.50;5075574;28;20441;-68
2022/12/21 00:47:53;;;;;;;21.60;8.70;;;;;;;5.75;100.00;100624.81;5074777;28;20437;-68
2022/12/21 00:50:19;;;;;;;22.07;9.07;;;;;;;5.78;100.00;100637.72;5075484;28;21007;-68
2022/12/21 00:52:47;;;;;;;20.60;8.87;;;;;;;5.80;100.00;100626.72;5074474;28;20836;-68
2022/12/21 00:55:14;;;;;;;16.97;7.97;;;;;;;5.78;100.00;100624.28;5075605;28;20477;-68
2022/12/21 00:57:41;;;;;;;20.30;9.50;;;;;;;5.80;100.00;100627.53;5075211;28;20540;-68
2022/12/21 01:00:09;;;;;;;25.40;9.87;;;;;;;5.82;100.00;100628.06;5075595;28;20437;-68
2022/12/21 01:02:36;;;;;;;24.90;9.20;;;;;;;5.85;100.00;100629.41;5074418;28;20491;-69
2022/12/21 01:05:03;;;;;;;22.03;8.40;;;;;;;5.82;100.00;100624.56;5074967;28;20469;-69
2022/12/21 01:07:29;;;;;;;19.90;9.17;;;;;;;5.81;100.00;100623.75;5074496;28;21005;-68
2022/12/21 01:09:57;;;;;;;23.03;8.17;;;;;;;5.78;100.00;100621.59;5075432;28;20537;-69
2022/12/21 01:12:24;;;;;;;24.47;9.40;;;;;;;5.81;100.00;100626.44;5072947;28;20464;-69
2022/12/21 01:14:50;;;;;;;29.67;9.93;;;;;;;5.84;100.00;100627.78;5074868;28;20491;-69
2022/12/21 01:17:17;;;;;;;22.57;8.10;;;;;;;5.86;100.00;100620.28;5074626;28;20777;-68
2022/12/21 01:19:44;;;;;;;19.90;8.07;;;;;;;5.83;100.00;100621.59;5075207;28;20521;-68
2022/12/21 01:22:11;;;;;;;19.70;8.53;;;;;;;5.80;100.00;100619.47;5074771;28;20464;-68
2022/12/21 01:24:37;;;;;;;32.03;9.97;;;;;;;5.79;100.00;100617.81;5073665;28;20477;-69
2022/12/21 01:27:05;;;;;;;20.40;7.50;;;;;;;5.86;100.00;100616.78;5074819;28;20441;-69
2022/12/21 01:29:32;;;;;;;20.90;9.07;;;;;;;5.89;100.00;100619.75;5073432;28;20531;-68
2022/12/21 01:31:58;;;;;;;23.30;8.97;;;;;;;5.88;100.00;100609.25;5074171;28;20457;-69
2022/12/21 01:34:25;;;;;;;20.80;8.20;;;;;;;5.90;100.00;100618.66;5073458;28;20568;-68
2022/12/21 01:36:52;;;;;;;27.70;8.87;;;;;;;5.90;100.00;100609.78;5074350;28;20560;-69
2022/12/21 01:39:18;;;;;;;19.47;8.97;;;;;;;5.83;100.00;100613.53;5074880;28;20517;-68
2022/12/21 01:41:45;;;;;;;17.77;7.83;;;;;;;5.82;100.00;100603.06;5074073;28;20548;-68
2022/12/21 01:44:45;;;;;;;17.57;8.23;;;;;;;5.85;100.00;100601.72;5073565;28;20520;-69
2022/12/21 01:47:18;;;;;;;25.00;7.93;;;;;;;5.86;100.00;100603.34;5054707;28;20468;-69
2022/12/21 01:49:51;;;;;;;20.47;7.53;;;;;;;5.86;100.00;100600.66;5060678;28;20806;-68
2022/12/21 01:52:18;;;;;;;24.40;8.90;;;;;;;5.81;100.00;100596.88;5074368;28;20516;-68
2022/12/21 01:54:50;;;;;;;19.47;8.37;;;;;;;5.83;100.00;100600.09;5072695;28;20488;-69
2022/12/21 01:57:18;;;;;;;20.73;7.60;;;;;;;5.81;100.00;100590.72;5074525;28;20504;-68
2022/12/21 01:59:49;;;;;;;31.37;9.63;;;;;;;5.80;100.00;100595.28;5073891;28;20879;-68
2022/12/21 02:02:20;;;;;;;18.53;7.90;;;;;;;5.83;100.00;100588.53;5074417;28;20426;-69
2022/12/21 02:04:50;;;;;;;21.03;9.27;;;;;;;5.85;100.00;100593.66;5071843;28;20485;-68
2022/12/21 02:07:17;;;;;;;19.63;8.60;;;;;;;5.86;100.00;100592.59;5073966;28;20532;-68
2022/12/21 02:09:44;;;;;;;20.10;9.10;;;;;;;5.87;100.00;100599.56;5073876;28;20495;-68
2022/12/21 02:12:14;;;;;;;19.97;9.53;;;;;;;5.93;100.00;100603.88;5073891;28;20433;-69
2022/12/21 02:14:45;;;;;;;30.10;9.80;;;;;;;5.94;100.00;100594.78;5072359;28;20579;-69
2022/12/21 02:17:21;;;;;;;26.77;10.03;;;;;;;5.88;100.00;100585.03;5072494;28;20441;-69
2022/12/21 02:20:19;;;;;;;26.60;8.90;;;;;;;5.89;100.00;100592.03;5072782;28;20508;-69
2022/12/21 02:23:07;;;;;;;26.27;10.10;;;;;;;5.88;100.00;100583.16;5073921;28;20473;-69
2022/12/21 02:25:57;;;;;;;18.43;8.10;;;;;;;5.91;100.00;100595.28;5072273;28;20449;-69
2022/12/21 02:28:43;;;;;;;19.87;9.60;;;;;;;5.88;100.00;100590.41;5053648;28;20801;-69
2022/12/21 02:31:22;;;;;;;25.47;10.00;;;;;;;5.90;100.00;100586.41;5057317;28;20457;-68
2022/12/21 02:34:03;;;;;;;32.07;9.70;;;;;;;5.87;100.00;100586.13;5073437;28;20461;-69
2022/12/21 02:36:39;;;;;;;22.87;9.00;;;;;;;5.84;100.00;100576.72;5072532;28;20449;-69
2022/12/21 02:39:17;;;;;;;24.00;9.40;;;;;;;5.87;100.00;100578.06;5073754;28;20457;-69
2022/12/21 02:41:53;;;;;;;23.83;9.27;;;;;;;5.85;100.00;100575.66;5072946;28;20847;-69
2022/12/21 02:44:30;;;;;;;26.13;9.37;;;;;;;5.86;100.00;100576.47;5073297;28;21012;-69
2022/12/21 02:47:04;;;;;;;20.23;9.87;;;;;;;5.85;100.00;100586.41;5074666;28;20535;-69
2022/12/21 02:49:37;;;;;;;20.20;9.70;;;;;;;5.88;100.00;100579.66;5073594;28;20795;-69
2022/12/21 02:52:07;;;;;;;18.70;7.80;;;;;;;5.86;100.00;100581.84;5072952;28;20544;-69
2022/12/21 02:54:35;;;;;;;21.97;9.27;;;;;;;5.80;100.00;100573.78;5073059;28;20842;-68
2022/12/21 02:57:01;;;;;;;22.63;10.63;;;;;;;5.74;100.00;100574.84;5072350;28;20467;-69
2022/12/21 02:59:32;;;;;;;18.40;9.30;;;;;;;5.64;100.00;100566.78;5073139;28;20449;-69
2022/12/21 03:02:41;;;;;;;26.67;9.90;;;;;;;5.67;100.00;100563.56;5072356;28;20464;-69
2022/12/21 03:05:36;;;;;;;20.17;7.90;;;;;;;5.73;100.00;100562.47;5061556;28;20483;-69
2022/12/21 03:08:15;;;;;;;27.27;10.00;;;;;;;5.68;100.00;100557.09;5072326;28;20464;-69
2022/12/21 03:10:55;;;;;;;23.13;9.30;;;;;;;5.70;100.00;100565.69;5073359;28;20432;-69
2022/12/21 03:13:32;;;;;;;28.27;10.37;;;;;;;5.70;100.00;100576.44;5072773;28;20477;-68
2022/12/21 03:16:06;;;;;;;19.40;9.30;;;;;;;5.66;100.00;100561.94;5072690;28;20477;-69
2022/12/21 03:18:45;;;;;;;22.87;9.30;;;;;;;5.63;100.00;100562.50;5071552;28;20973;-69
2022/12/21 03:21:16;;;;;;;23.57;9.50;;;;;;;5.59;100.00;100568.66;5072995;28;20790;-69
2022/12/21 03:23:51;;;;;;;16.90;8.40;;;;;;;5.61;100.00;100559.25;5072552;28;20480;-69
2022/12/21 03:26:21;;;;;;;26.33;11.13;;;;;;;5.53;100.00;100565.16;5073478;28;20425;-68
2022/12/21 03:28:50;;;;;;;24.40;8.77;;;;;;;5.57;100.00;100568.91;5071977;28;20942;-69
2022/12/21 03:31:22;;;;;;;24.77;9.33;;;;;;;5.61;100.00;100556.56;5073122;28;20442;-68
2022/12/21 03:33:56;;;;;;;23.10;10.13;;;;;;;5.64;100.00;100558.72;5072450;28;20489;-68
2022/12/21 03:36:30;;;;;;;20.03;8.63;;;;;;;5.68;100.00;100561.69;5073067;28;20552;-68
2022/12/21 03:39:00;;;;;;;27.40;11.80;;;;;;;5.65;100.00;100556.84;5071647;28;20453;-68
2022/12/21 03:41:31;;;;;;;28.50;10.73;;;;;;;5.67;100.00;100552.81;5073070;28;20428;-68
2022/12/21 03:44:02;;;;;;;22.07;9.00;;;;;;;5.66;100.00;100550.38;5071498;28;20473;-68
2022/12/21 03:46:33;;;;;;;27.77;9.90;;;;;;;5.65;100.00;100548.78;5073005;28;20430;-68
2022/12/21 03:49:05;;;;;;;25.30;9.73;;;;;;;5.67;100.00;100554.69;5071584;28;20450;-68
2022/12/21 03:51:39;;;;;;;36.53;11.83;;;;;;;5.68;100.00;100551.75;5072971;28;20453;-68
2022/12/21 03:54:11;;;;;;;25.93;10.10;;;;;;;5.65;100.00;100549.56;5072193;28;20509;-68
2022/12/21 03:56:40;;;;;;;23.80;10.33;;;;;;;5.70;100.00;100546.09;5072482;28;20974;-68
2022/12/21 03:59:09;;;;;;;21.07;9.87;;;;;;;5.71;100.00;100547.69;5071128;28;21042;-68
2022/12/21 04:01:47;;;;;;;23.17;9.47;;;;;;;5.72;100.00;100547.44;5072442;28;20943;-69
2022/12/21 04:04:25;;;;;;;21.03;9.40;;;;;;;5.74;100.00;100541.78;5072381;28;20941;-69
2022/12/21 04:06:54;;;;;;;28.77;8.13;;;;;;;5.75;100.00;100544.19;5071567;28;20452;-70
2022/12/21 04:09:21;;;;;;;26.20;10.47;;;;;;;5.65;100.00;100541.50;5071595;28;20483;-69
2022/12/21 04:14:32;;;;;;;21.33;9.17;;;;;;;5.63;100.00;100546.38;5071740;28;20625;-69
2022/12/21 04:16:59;;;;;;;34.53;11.50;;;;;;;5.67;100.00;100539.38;5074504;28;20476;-69
2022/12/21 04:28:06;;;;;;;24.73;10.20;;;;;;;5.72;100.00;100533.19;5076140;28;20401;-68
2022/12/21 04:30:25;;;;;;;20.00;8.77;;;;;;;5.72;100.00;100523.25;5074718;28;21084;-68
2022/12/21 04:32:52;;;;;;;23.00;10.00;;;;;;;5.72;100.00;100528.63;5075698;28;20961;-68
2022/12/21 04:35:20;;;;;;;27.87;8.33;;;;;;;5.76;100.00;100531.59;5075392;28;20491;-69
2022/12/21 04:37:45;;;;;;;31.20;10.10;;;;;;;5.77;100.00;100536.69;5075679;28;20960;-68
2022/12/21 04:40:12;;;;;;;29.80;10.20;;;;;;;5.79;100.00;100533.72;5074829;28;20539;-68
2022/12/21 04:42:39;;;;;;;25.90;8.80;;;;;;;5.78;100.00;100532.09;5075944;28;20290;-69
2022/12/21 04:45:07;;;;;;;22.50;10.33;;;;;;;5.82;100.00;100531.28;5074461;28;20503;-69
2022/12/21 04:47:33;;;;;;;28.33;10.60;;;;;;;5.83;100.00;100532.91;5075549;28;20957;-68
2022/12/21 04:52:31;;;;;;;22.40;9.60;;;;;;;5.87;100.00;100524.31;5060384;22;20491;-75
2022/12/21 04:54:58;;;;;;;22.33;9.30;;;;;;;5.92;100.00;100527.00;5047146;28;20504;-74
2022/12/21 04:57:25;;;;;;;27.47;9.50;;;;;;;5.96;100.00;100517.34;5055950;28;20454;-74
2022/12/21 04:59:51;;;;;;;24.97;10.10;;;;;;;6.00;100.00;100523.78;5051057;28;20468;-74
2022/12/21 05:02:18;;;;;;;26.83;10.90;;;;;;;6.03;100.00;100518.66;5055592;28;20469;-74
2022/12/21 05:04:44;;;;;;;21.13;9.80;;;;;;;6.08;100.00;100531.28;5054122;28;20489;-74
2022/12/21 05:07:11;;;;;;;20.37;9.67;;;;;;;6.05;100.00;100515.69;5055853;28;20442;-74
2022/12/21 05:09:39;;;;;;;22.50;9.70;;;;;;;6.06;100.00;100526.19;5044213;28;20551;-74
2022/12/21 05:12:06;;;;;;;26.97;9.93;;;;;;;6.10;100.00;100529.13;5055583;28;20462;-73
2022/12/21 05:14:33;;;;;;;23.00;10.93;;;;;;;6.11;100.00;100525.38;5044696;28;20879;-73
2022/12/21 05:17:00;;;;;;;20.03;9.40;;;;;;;6.14;100.00;100524.00;5035080;28;20478;-75
2022/12/21 05:19:35;;;;;;;24.83;10.57;;;;;;;6.07;100.00;100527.00;5038888;28;20466;-74
2022/12/21 05:22:02;;;;;;;22.93;9.53;;;;;;;6.06;100.00;100525.38;5054964;28;20465;-74
2022/12/21 05:24:29;;;;;;;16.90;8.53;;;;;;;6.09;100.00;100518.66;5044872;28;20494;-74
2022/12/21 05:26:57;;;;;;;19.20;8.87;;;;;;;6.07;100.00;100516.25;5035275;28;20440;-74
2022/12/21 05:29:24;;;;;;;24.00;10.40;;;;;;;6.11;100.00;100517.31;5036841;28;20970;-74
2022/12/21 05:31:51;;;;;;;22.20;9.67;;;;;;;6.19;100.00;100518.63;5055228;28;20545;-73
2022/12/21 05:34:17;;;;;;;28.17;9.17;;;;;;;6.22;100.00;100518.88;5046196;28;20903;-74
2022/12/21 05:36:44;;;;;;;31.60;10.60;;;;;;;6.24;100.00;100519.44;5035143;28;20487;-74
2022/12/21 05:39:10;;;;;;;20.40;9.70;;;;;;;6.07;100.00;100518.94;5037369;28;20545;-75
2022/12/21 05:41:37;;;;;;;30.63;12.20;;;;;;;6.15;100.00;100526.41;5055230;28;20466;-75
2022/12/21 05:44:05;;;;;;;32.73;11.37;;;;;;;6.26;100.00;100524.53;5048048;28;20463;-75
2022/12/21 05:46:31;;;;;;;23.43;9.90;;;;;;;6.29;100.00;100522.09;5035069;28;20444;-75
2022/12/21 05:48:58;;;;;;;30.00;10.83;;;;;;;6.34;100.00;100523.16;5035976;28;20491;-75
2022/12/21 05:51:24;;;;;;;27.40;9.67;;;;;;;6.31;100.00;100537.97;5054345;28;20473;-74
2022/12/21 05:53:51;;;;;;;18.00;9.90;;;;;;;6.26;100.00;100533.41;5049425;28;20459;-74
2022/12/21 05:56:18;;;;;;;25.90;10.10;;;;;;;6.26;100.00;100532.59;5034330;28;20483;-74
2022/12/21 05:58:45;;;;;;;21.30;9.57;;;;;;;6.32;100.00;100534.19;5033981;28;20495;-75
2022/12/21 06:01:13;;;;;;;26.60;9.80;;;;;;;6.39;100.00;100532.03;5034505;28;20479;-74
2022/12/21 06:03:41;;;;;;;28.80;9.03;;;;;;;6.46;100.00;100532.53;5034144;28;20453;-74
2022/12/21 06:06:09;;;;;;;26.03;9.67;;;;;;;6.51;100.00;100534.41;5034834;28;20530;-74
2022/12/21 06:08:37;;;;;;;22.70;9.73;;;;;;;6.57;100.00;100533.28;5035410;28;20488;-74
2022/12/21 06:11:05;;;;;;;25.40;9.73;;;;;;;6.57;100.00;100534.09;5054488;28;20879;-74
2022/12/21 06:13:31;;;;;;;25.97;10.50;;;;;;;6.60;100.00;100540.00;5051060;28;20554;-74
2022/12/21 06:16:03;;;;;;;20.60;9.80;;;;;;;6.59;100.00;100531.13;5054457;28;20931;-73
2022/12/21 06:18:31;;;;;;;20.20;9.50;;;;;;;6.60;100.00;100537.31;5039292;28;20987;-74
2022/12/21 06:20:57;;;;;;;28.70;11.87;;;;;;;6.61;100.00;100539.75;5034103;28;20941;-74
2022/12/21 06:23:24;;;;;;;27.80;9.63;;;;;;;6.62;100.00;100535.16;5042839;28;20473;-73
2022/12/21 06:25:55;;;;;;;26.70;9.80;;;;;;;6.64;100.00;100539.19;5054415;28;20874;-74
2022/12/21 06:28:22;;;;;;;24.33;8.63;;;;;;;6.68;100.00;100534.84;5040661;28;20483;-73
2022/12/21 06:30:50;;;;;;;18.33;8.70;;;;;;;6.68;100.00;100539.44;5033923;28;21000;-73
2022/12/21 06:33:17;;;;;;;20.10;9.60;;;;;;;6.67;100.00;100540.50;5033480;28;20462;-73
2022/12/21 06:35:45;;;;;;;21.43;9.07;;;;;;;6.64;100.00;100539.19;5034133;28;20582;-74
2022/12/21 06:38:11;;;;;;;21.20;9.03;;;;;;;6.67;100.00;100535.94;5045315;28;20462;-75
2022/12/21 06:40:38;;;;;;;20.37;9.53;;;;;;;6.69;100.00;100536.47;5053836;28;20470;-74
2022/12/21 06:43:04;;;;;;;23.47;10.47;;;;;;;6.73;100.00;100537.53;5052579;28;20461;-74
2022/12/21 06:45:31;;;;;;;21.37;9.63;;;;;;;6.70;100.00;100542.66;5038870;28;20459;-74
2022/12/21 06:47:58;;;;;;;22.60;9.73;;;;;;;6.69;100.00;100539.16;5033039;28;20463;-74
2022/12/21 06:50:25;;;;;;;22.13;10.87;;;;;;;6.72;100.00;100540.50;5037122;28;21120;-73
2022/12/21 06:52:53;;;;;;;29.40;9.00;;;;;;;6.70;100.00;100539.97;5048290;28;20462;-73
2022/12/21 06:55:20;;;;;;;21.53;10.13;;;;;;;6.72;100.00;100533.22;5044363;28;20462;-74
2022/12/21 06:57:46;;;;;;;30.03;10.10;;;;;;;6.72;100.00;100543.97;5033885;28;20897;-73
2022/12/21 07:00:14;;;;;;;24.40;10.80;;;;;;;6.66;100.00;100542.41;5036829;28;20466;-72
2022/12/21 07:02:41;;;;;;;26.37;10.60;;;;;;;6.61;100.00;100534.34;5053561;28;20439;-72
2022/12/21 07:05:08;;;;;;;22.60;11.33;;;;;;;6.66;100.00;100544.28;5045793;28;20467;-72
2022/12/21 07:07:35;;;;;;;18.83;8.50;;;;;;;6.68;100.00;100545.63;5035665;28;21023;-72
2022/12/21 07:10:03;;;;;;;24.40;10.17;;;;;;;6.72;100.00;100540.50;5032326;28;20485;-73
2022/12/21 07:12:30;;;;;;;21.20;8.60;;;;;;;6.66;100.00;100528.94;5033170;28;20443;-71
2022/12/21 07:14:56;;;;;;;24.27;10.20;;;;;;;6.67;100.00;100537.81;5033003;28;20447;-68
2022/12/21 07:17:23;;;;;;;26.50;10.17;;;;;;;6.71;100.00;100550.44;5031561;28;20935;-68
2022/12/21 07:19:50;;;;;;;25.50;10.70;;;;;;;6.79;100.00;100536.44;5033370;28;20465;-69
2022/12/21 07:22:16;;;;;;;25.70;10.70;;;;;;;6.79;100.00;100541.00;5032921;28;20470;-71
2022/12/21 07:24:43;;;;;;;25.30;10.67;;;;;;;6.82;100.00;100535.88;5034468;28;20494;-71
2022/12/21 07:27:11;;;;;;;23.30;11.37;;;;;;;6.86;100.00;100535.31;5013091;28;20976;-71
2022/12/21 07:29:37;;;;;;;23.07;10.27;;;;;;;6.88;100.00;100542.03;5015968;28;20455;-71
2022/12/21 07:32:04;;;;;;;21.70;11.00;;;;;;;6.90;100.00;100557.91;5031903;28;20487;-71
2022/12/21 07:34:31;;;;;;;15.87;8.90;;;;;;;6.88;100.00;100554.69;5052929;28;20442;-70
2022/12/21 07:36:57;;;;;;;25.63;11.00;;;;;;;6.88;100.00;100552.00;5048463;28;20495;-69
2022/12/21 07:39:24;;;;;;;24.80;10.60;;;;;;;6.87;100.00;100537.75;5032507;28;20907;-70
2022/12/21 07:41:50;;;;;;;19.13;9.13;;;;;;;6.91;100.00;100543.38;5030985;28;20466;-70
2022/12/21 07:44:18;;;;;;;20.47;9.60;;;;;;;6.91;100.00;100559.53;5051718;28;20861;-72
2022/12/21 07:46:45;;;;;;;23.97;10.53;;;;;;;6.90;100.00;100556.00;5050006;28;20473;-72
2022/12/21 07:49:12;;;;;;;21.70;8.77;;;;;;;6.95;100.00;100556.00;5050031;28;20867;-71
2022/12/21 07:51:38;;;;;;;23.13;9.70;;;;;;;6.95;100.00;100558.69;5052509;28;21117;-72
2022/12/21 07:54:05;;;;;;;22.80;10.53;;;;;;;6.99;100.00;100556.22;5052636;28;20905;-71
2022/12/21 07:56:32;;;;;;;24.20;9.60;;;;;;;7.01;100.00;100564.84;5055981;28;20492;-72
2022/12/21 07:58:59;;;;;;;25.47;10.50;;;;;;;7.02;100.00;100563.78;5056666;28;21009;-71
2022/12/21 08:01:27;;;;;;;21.50;10.10;;;;;;;7.04;100.00;100573.19;5041306;28;20911;-70
2022/12/21 08:03:56;;;;;;;23.63;9.93;;;;;;;7.06;100.00;100567.53;5044496;28;20464;-73
2022/12/21 08:06:22;;;;;;;26.33;10.57;;;;;;;7.04;100.00;100565.13;5056924;28;20453;-71
2022/12/21 08:08:50;;;;;;;25.40;10.37;;;;;;;7.08;100.00;100570.72;5049259;28;20540;-74
2022/12/21 08:11:18;;;;;;;19.20;8.10;;;;;;;7.10;100.00;100573.97;5046615;28;20578;-72
2022/12/21 08:13:45;;;;;;;22.80;10.27;;;;;;;7.12;100.00;100571.78;5051252;28;20488;-71
2022/12/21 08:16:13;;;;;;;23.03;9.67;;;;;;;7.12;100.00;100569.09;5056466;28;20481;-72
2022/12/21 08:18:41;;;;;;;27.63;10.13;;;;;;;7.14;100.00;100571.53;5056256;28;20453;-73
2022/12/21 08:21:08;;;;;;;23.33;10.50;;;;;;;7.16;100.00;100575.53;5035976;28;20953;-73
2022/12/21 08:23:35;;;;;;;24.03;9.93;;;;;;;7.18;100.00;100584.16;5036744;28;20462;-73
2022/12/21 08:26:03;;;;;;;23.63;11.70;;;;;;;7.21;100.00;100585.47;5046055;28;20839;-73
2022/12/21 08:28:30;;;;;;;26.40;11.30;;;;;;;7.22;100.00;100587.91;5056191;28;20457;-73
2022/12/21 08:31:01;;;;;;;29.80;12.33;;;;;;;7.27;100.00;100579.78;5055016;28;20861;-73
2022/12/21 08:33:28;;;;;;;20.90;9.83;;;;;;;7.27;100.00;100579.78;5040604;28;20463;-72
2022/12/21 08:35:56;;;;;;;24.27;10.70;;;;;;;7.29;100.00;100585.69;5035993;28;20454;-73
2022/12/21 08:38:23;;;;;;;23.87;11.57;;;;;;;7.34;100.00;100584.84;5036859;28;20848;-72
2022/12/21 08:40:50;;;;;;;19.13;9.03;;;;;;;7.36;100.00;100584.59;5042369;28;20505;-72
2022/12/21 08:43:16;;;;;;;24.00;9.83;;;;;;;7.38;100.00;100579.72;5052811;28;20556;-73
2022/12/21 08:45:44;;;;;;;21.17;11.13;;;;;;;7.42;100.00;100581.56;5056048;28;20515;-70
2022/12/21 08:48:10;;;;;;;22.87;10.20;;;;;;;7.46;100.00;100581.81;5046980;28;20868;-72
2022/12/21 08:50:37;;;;;;;22.17;10.23;;;;;;;7.46;100.00;100576.44;5034953;28;20475;-72
2022/12/21 08:53:05;;;;;;;29.93;10.47;;;;;;;7.45;100.00;100566.75;5050412;28;20459;-72
2022/12/21 08:55:32;;;;;;;27.80;12.00;;;;;;;7.49;100.00;100573.19;5055914;28;20529;-72
2022/12/21 08:57:58;;;;;;;19.73;9.20;;;;;;;7.54;100.00;100575.84;5047535;28;20487;-72
2022/12/21 09:00:25;;;;;;;21.37;10.90;;;;;;;7.56;100.00;100579.03;5035832;28;20470;-70
2022/12/21 09:02:51;;;;;;;28.87;12.23;;;;;;;7.57;100.00;100575.28;5037296;28;20883;-72
2022/12/21 09:05:18;;;;;;;23.83;10.90;;;;;;;7.62;100.00;100580.63;5055414;28;20446;-71
2022/12/21 09:07:45;;;;;;;21.97;8.83;;;;;;;7.65;100.00;100585.44;5041786;28;20550;-71
2022/12/21 09:10:13;;;;;;;19.97;10.70;;;;;;;7.68;100.00;100576.00;5035764;28;20450;-71
2022/12/21 09:12:40;;;;;;;23.60;10.30;;;;;;;7.73;100.00;100584.84;5046548;28;20497;-71
2022/12/21 09:15:08;;;;;;;22.20;10.30;;;;;;;7.75;100.00;100585.38;5050959;28;20490;-71
2022/12/21 09:17:35;;;;;;;22.83;9.97;;;;;;;7.74;100.00;100578.34;5055598;28;20518;-70
2022/12/21 09:20:01;;;;;;;21.73;10.67;;;;;;;7.78;100.00;100584.00;5050615;28;20465;-70
2022/12/21 09:22:28;;;;;;;27.13;12.60;;;;;;;7.79;100.00;100581.03;5050294;28;20482;-70
2022/12/21 09:24:54;;;;;;;28.43;11.10;;;;;;;7.79;100.00;100570.25;5042235;28;20466;-66
2022/12/21 09:27:22;;;;;;;21.30;10.50;;;;;;;7.82;100.00;100568.88;5035244;28;20443;-70
2022/12/21 09:29:49;;;;;;;25.20;10.10;;;;;;;7.80;100.00;100577.25;5034600;28;20554;-71
2022/12/21 09:32:15;;;;;;;26.80;12.60;;;;;;;7.79;100.00;100578.34;5034924;28;20469;-71
2022/12/21 09:34:42;;;;;;;22.73;11.57;;;;;;;7.82;100.00;100580.47;5034956;28;20546;-71
2022/12/21 09:37:09;;;;;;;31.60;10.50;;;;;;;7.80;100.00;100581.84;5035494;28;20541;-71
2022/12/21 09:39:37;;;;;;;31.03;10.90;;;;;;;7.77;100.00;100577.00;5045409;28;20886;-71
2022/12/21 09:42:18;;;;;;;26.57;10.50;;;;;;;7.78;100.00;100582.09;5054831;28;20508;-71
2022/12/21 09:45:00;;;;;;;23.20;9.83;;;;;;;7.83;100.00;100581.25;5051493;28;20458;-72
2022/12/21 09:47:30;;;;;;;21.87;9.83;;;;;;;7.81;100.00;100581.56;5050967;28;20469;-71
2022/12/21 09:50:00;;;;;;;31.30;10.83;;;;;;;7.82;100.00;100579.66;5049175;28;20461;-70
2022/12/21 09:52:32;;;;;;;26.50;10.77;;;;;;;7.83;100.00;100581.25;5054405;28;20474;-69
2022/12/21 09:55:03;;;;;;;18.57;10.07;;;;;;;7.80;100.00;100565.66;5036906;28;20970;-69
2022/12/21 09:57:33;;;;;;;24.50;10.50;;;;;;;7.78;100.00;100573.22;5045850;28;20490;-71
2022/12/21 10:00:04;;;;;;;18.77;9.10;;;;;;;7.80;100.00;100576.44;5054524;28;20441;-68
2022/12/21 10:02:46;;;;;;;26.03;10.57;;;;;;;7.82;100.00;100569.66;5036884;28;20459;-68
2022/12/21 10:05:22;;;;;;;20.73;10.53;;;;;;;7.87;100.00;100565.31;5034497;28;20428;-69
2022/12/21 10:08:08;;;;;;;27.10;10.37;;;;;;;7.88;100.00;100577.72;5033075;28;20489;-70
2022/12/21 10:10:39;;;;;;;20.47;9.67;;;;;;;7.86;100.00;100574.50;5014654;28;20547;-68
2022/12/21 10:13:14;;;;;;;22.73;9.97;;;;;;;7.86;100.00;100577.19;5015668;28;20903;-69
2022/12/21 10:15:53;;;;;;;29.57;10.60;;;;;;;7.86;100.00;100569.13;5033337;28;20463;-68
2022/12/21 10:18:30;;;;;;;23.00;10.07;;;;;;;7.87;100.00;100586.91;5023667;28;21054;-69
2022/12/21 10:21:04;;;;;;;25.67;10.83;;;;;;;7.86;100.00;100575.31;5034286;28;20502;-69
2022/12/21 10:23:34;;;;;;;19.20;8.80;;;;;;;7.83;100.00;100575.88;5033399;28;20470;-69
2022/12/21 10:26:03;;;;;;;20.70;9.33;;;;;;;7.81;100.00;100568.06;5032540;28;20459;-69
2022/12/21 10:28:40;;;;;;;21.17;9.80;;;;;;;7.79;100.00;100569.44;5032993;28;20455;-69
2022/12/21 10:31:10;;;;;;;23.67;10.40;;;;;;;7.83;100.00;100571.31;5029814;28;20911;-69
2022/12/21 10:33:41;;;;;;;25.70;10.90;;;;;;;7.83;100.00;100565.91;5032600;28;20459;-68
2022/12/21 10:36:14;;;;;;;25.30;10.33;;;;;;;7.83;100.00;100557.00;5034067;28;20474;-69
2022/12/21 10:38:41;;;;;;;26.60;10.10;;;;;;;7.81;100.00;100556.47;5033443;28;20550;-69
2022/12/21 10:41:13;;;;;;;20.93;10.50;;;;;;;7.84;100.00;100553.22;5048319;28;20588;-68
2022/12/21 10:43:42;;;;;;;21.43;9.90;;;;;;;7.88;100.00;100561.53;5042887;28;20493;-71
2022/12/21 10:46:10;;;;;;;30.87;10.73;;;;;;;7.92;100.00;100557.19;5041996;28;20467;-70
2022/12/21 10:48:36;;;;;;;22.07;9.00;;;;;;;7.93;100.00;100556.91;5033928;28;20534;-69
2022/12/21 10:51:15;;;;;;;23.40;9.60;;;;;;;7.97;100.00;100551.75;5035590;28;20490;-70
2022/12/21 10:53:58;;;;;;;23.10;9.60;;;;;;;7.97;100.00;100547.16;5039685;28;20841;-72
2022/12/21 10:56:27;;;;;;;16.13;8.63;;;;;;;7.96;100.00;100540.16;5031506;28;20431;-69
2022/12/21 10:58:54;;;;;;;20.40;9.70;;;;;;;7.94;100.00;100536.94;5049554;28;20496;-72
2022/12/21 11:01:27;;;;;;;18.53;9.13;;;;;;;7.97;100.00;100535.56;5049528;28;20458;-70
2022/12/21 11:04:09;;;;;;;22.33;9.80;;;;;;;8.01;100.00;100531.19;5039188;28;20557;-71
2022/12/21 11:06:36;;;;;;;19.20;8.73;;;;;;;8.04;100.00;100527.94;5047940;28;20539;-72
2022/12/21 11:09:04;;;;;;;17.60;9.10;;;;;;;8.09;100.00;100534.09;5033462;28;20618;-72
2022/12/21 11:11:32;;;;;;;22.83;11.00;;;;;;;8.10;100.00;100540.28;5032440;28;20483;-73
2022/12/21 11:14:01;;;;;;;27.70;11.40;;;;;;;8.14;100.00;100529.72;5049808;28;20487;-72
2022/12/21 11:16:31;;;;;;;23.00;10.30;;;;;;;8.18;100.00;100528.06;5049948;28;20541;-72
2022/12/21 11:19:00;;;;;;;23.13;10.50;;;;;;;8.21;100.00;100528.31;5031253;28;20475;-70
2022/12/21 11:21:34;;;;;;;17.63;8.30;;;;;;;8.28;100.00;100520.69;5037882;28;20926;-71
2022/12/21 11:24:05;;;;;;;21.13;9.67;;;;;;;8.33;100.00;100534.13;5041007;28;20462;-72
2022/12/21 11:26:38;;;;;;;22.13;10.90;;;;;;;8.37;100.00;100525.44;5032390;28;20527;-71
2022/12/21 11:29:07;;;;;;;22.20;9.47;;;;;;;8.38;100.00;100527.09;5041004;28;20481;-72
2022/12/21 11:31:36;;;;;;;25.80;11.00;;;;;;;8.36;100.00;100513.81;5031441;28;20502;-71
2022/12/21 11:34:03;;;;;;;23.63;11.63;;;;;;;8.32;100.00;100513.63;5034115;28;20985;-71
2022/12/21 11:36:30;;;;;;;22.50;10.17;;;;;;;8.33;100.00;100512.53;5034666;28;20857;-72
2022/12/21 11:38:57;;;;;;;25.50;11.00;;;;;;;8.36;100.00;100508.44;5053359;28;20489;-71